createdAt,value
2023-03-06T00:00:29.719Z,20.15
2023-03-06T00:01:27.829Z,19.82
2023-03-06T00:02:25.218Z,18.83
2023-03-06T00:03:23.723Z,18.78
2023-03-06T00:04:21.130Z,19.67
2023-03-06T00:05:18.979Z,19.48
2023-03-06T00:06:16.424Z,19.99
2023-03-06T00:07:13.837Z,19.58
2023-03-06T00:08:11.328Z,19.33
2023-03-06T00:09:09.867Z,17.72
2023-03-06T00:10:08.005Z,18.57
2023-03-06T00:11:05.473Z,18.38
2023-03-06T00:12:02.846Z,18.76
2023-03-06T00:13:05.069Z,19.41
2023-03-06T00:14:02.781Z,19.50
2023-03-06T00:15:00.160Z,18.51
2023-03-06T00:16:00.569Z,18.45
2023-03-06T00:16:57.959Z,19.35
2023-03-06T00:17:55.988Z,19.45
2023-03-06T00:18:53.326Z,18.64
2023-03-06T00:19:50.726Z,18.08
2023-03-06T00:20:48.066Z,18.84
2023-03-06T00:21:45.425Z,19.27
2023-03-06T00:22:43.435Z,18.79
2023-03-06T00:23:41.382Z,18.32
2023-03-06T00:24:38.694Z,18.18
2023-03-06T00:25:39.337Z,18.54
2023-03-06T00:26:36.800Z,17.67
2023-03-06T00:27:34.341Z,17.19
2023-03-06T00:28:32.615Z,17.26
2023-03-06T00:29:30.075Z,17.55
2023-03-06T00:30:27.573Z,17.23
2023-03-06T00:31:24.940Z,17.97
2023-03-06T00:32:22.751Z,16.60
2023-03-06T00:33:20.108Z,17.38
2023-03-06T00:34:17.478Z,16.60
2023-03-06T00:35:15.872Z,16.99
2023-03-06T00:36:13.208Z,16.91
2023-03-06T00:37:10.581Z,16.42
2023-03-06T00:38:08.219Z,16.17
2023-03-06T00:39:05.561Z,16.29
2023-03-06T00:40:05.160Z,17.05
2023-03-06T00:41:09.522Z,16.58
2023-03-06T00:42:06.887Z,16.59
2023-03-06T00:43:04.325Z,16.08
2023-03-06T00:44:01.681Z,16.89
2023-03-06T00:44:59.047Z,17.27
2023-03-06T00:45:56.374Z,17.57
2023-03-06T00:46:53.798Z,17.39
2023-03-06T00:47:51.233Z,16.83
2023-03-06T00:48:48.644Z,17.21
2023-03-06T00:49:46.446Z,17.87
2023-03-06T00:50:43.817Z,17.46
2023-03-06T00:51:41.169Z,17.45
2023-03-06T00:52:38.503Z,17.59
2023-03-06T00:53:35.832Z,17.77
2023-03-06T00:54:33.113Z,16.82
2023-03-06T00:55:31.208Z,17.38
2023-03-06T00:56:30.015Z,17.03
2023-03-06T00:57:27.471Z,18.28
2023-03-06T00:58:24.839Z,17.68
2023-03-06T00:59:22.205Z,17.44
2023-03-06T01:00:19.623Z,17.51
2023-03-06T01:01:17.026Z,17.45
2023-03-06T01:02:14.545Z,17.73
2023-03-06T01:03:12.540Z,17.31
2023-03-06T01:04:09.894Z,16.91
2023-03-06T01:05:08.121Z,17.42
2023-03-06T01:06:05.531Z,17.54
2023-03-06T01:07:02.841Z,17.80
2023-03-06T01:08:00.191Z,17.28
2023-03-06T01:08:57.538Z,18.30
2023-03-06T01:09:54.878Z,18.01
2023-03-06T01:10:52.497Z,18.80
2023-03-06T01:11:49.818Z,17.92
2023-03-06T01:12:47.205Z,18.16
2023-03-06T01:13:44.949Z,18.50
2023-03-06T01:14:42.432Z,18.74
2023-03-06T01:15:39.775Z,18.33
2023-03-06T01:16:37.133Z,17.82
2023-03-06T01:17:34.480Z,17.31
2023-03-06T01:18:31.773Z,18.40
2023-03-06T01:19:29.108Z,17.59
2023-03-06T01:20:26.561Z,17.34
2023-03-06T01:21:24.592Z,17.84
2023-03-06T01:22:21.927Z,17.92
2023-03-06T01:23:19.279Z,16.98
2023-03-06T01:24:16.699Z,17.76
2023-03-06T01:25:14.377Z,17.88
2023-03-06T01:26:11.788Z,17.90
2023-03-06T01:27:09.115Z,17.60
2023-03-06T01:28:06.428Z,17.06
2023-03-06T01:29:03.806Z,17.43
2023-03-06T01:30:01.294Z,17.57
2023-03-06T01:30:58.625Z,17.83
2023-03-06T01:31:56.030Z,18.14
2023-03-06T01:32:53.405Z,17.15
2023-03-06T01:33:50.772Z,17.28
2023-03-06T01:34:48.155Z,17.94
2023-03-06T01:35:45.554Z,17.99
2023-03-06T01:36:42.953Z,17.37
2023-03-06T01:37:40.847Z,17.15
2023-03-06T01:38:38.196Z,17.34
2023-03-06T01:39:35.575Z,17.46
2023-03-06T01:40:34.202Z,18.27
2023-03-06T01:41:32.788Z,17.89
2023-03-06T01:42:32.067Z,18.26
2023-03-06T01:43:36.676Z,17.72
2023-03-06T01:44:34.049Z,17.47
2023-03-06T01:45:31.345Z,16.59
2023-03-06T01:46:28.660Z,17.13
2023-03-06T01:47:26.287Z,17.95
2023-03-06T01:48:24.716Z,17.41
2023-03-06T01:49:22.086Z,17.18
2023-03-06T01:50:19.532Z,17.15
2023-03-06T01:51:17.245Z,18.52
2023-03-06T01:52:18.675Z,18.84
2023-03-06T01:53:16.162Z,19.73
2023-03-06T01:54:16.526Z,21.73
2023-03-06T01:55:27.141Z,23.29
2023-03-06T01:56:25.492Z,21.23
2023-03-06T01:57:29.395Z,20.14
2023-03-06T01:58:26.767Z,21.31
2023-03-06T01:59:27.001Z,21.54
2023-03-06T02:00:27.234Z,21.50
2023-03-06T02:01:25.263Z,18.28
2023-03-06T02:02:22.744Z,18.10
2023-03-06T02:03:25.753Z,17.44
2023-03-06T02:04:23.935Z,17.57
2023-03-06T02:05:21.999Z,18.00
2023-03-06T02:06:21.796Z,18.96
2023-03-06T02:07:20.708Z,19.20
2023-03-06T02:08:21.412Z,18.39
2023-03-06T02:09:19.017Z,17.89
2023-03-06T02:10:18.717Z,16.99
2023-03-06T02:11:20.850Z,15.94
2023-03-06T02:12:19.533Z,16.33
2023-03-06T02:13:17.014Z,17.33
2023-03-06T02:14:18.348Z,16.97
2023-03-06T02:15:17.669Z,16.68
2023-03-06T02:16:17.066Z,17.29
2023-03-06T02:17:17.269Z,17.54
2023-03-06T02:18:14.607Z,16.30
2023-03-06T02:19:27.014Z,17.76
2023-03-06T02:20:24.369Z,16.58
2023-03-06T02:21:24.907Z,17.01
2023-03-06T02:22:23.170Z,16.08
2023-03-06T02:23:26.516Z,16.42
2023-03-06T02:24:33.716Z,16.90
2023-03-06T02:25:31.010Z,17.02
2023-03-06T02:26:29.945Z,17.36
2023-03-06T02:27:28.007Z,16.05
2023-03-06T02:28:25.406Z,15.82
2023-03-06T02:29:26.520Z,16.53
2023-03-06T02:30:25.351Z,16.67
2023-03-06T02:31:27.875Z,16.69
2023-03-06T02:32:25.306Z,16.29
2023-03-06T02:33:24.191Z,17.01
2023-03-06T02:34:21.489Z,17.73
2023-03-06T02:35:23.378Z,17.00
2023-03-06T02:36:20.829Z,15.94
2023-03-06T02:37:18.198Z,16.53
2023-03-06T02:38:17.845Z,16.82
2023-03-06T02:39:18.791Z,17.51
2023-03-06T02:40:18.730Z,15.87
2023-03-06T02:41:16.111Z,16.55
2023-03-06T02:42:21.072Z,16.60
2023-03-06T02:43:22.124Z,16.97
2023-03-06T02:44:20.146Z,17.41
2023-03-06T02:45:22.024Z,16.50
2023-03-06T02:46:19.438Z,16.93
2023-03-06T02:47:16.875Z,16.58
2023-03-06T02:48:15.375Z,16.89
2023-03-06T02:49:12.691Z,16.41
2023-03-06T02:50:10.361Z,16.45
2023-03-06T02:51:08.009Z,16.44
2023-03-06T02:52:06.794Z,16.88
2023-03-06T02:53:04.805Z,16.00
2023-03-06T02:54:02.180Z,16.15
2023-03-06T02:54:59.525Z,15.50
2023-03-06T02:55:57.124Z,15.52
2023-03-06T02:56:54.575Z,15.38
2023-03-06T02:57:52.013Z,15.74
2023-03-06T02:58:49.301Z,15.31
2023-03-06T02:59:46.653Z,15.55
2023-03-06T03:00:43.967Z,15.73
2023-03-06T03:01:41.407Z,16.51
2023-03-06T03:02:38.794Z,17.91
2023-03-06T03:03:36.164Z,18.17
2023-03-06T03:04:33.998Z,16.69
2023-03-06T03:05:31.973Z,16.31
2023-03-06T03:06:29.288Z,16.10
2023-03-06T03:07:26.698Z,16.83
2023-03-06T03:08:24.097Z,16.06
2023-03-06T03:09:21.469Z,16.31
2023-03-06T03:10:18.989Z,15.52
2023-03-06T03:11:16.365Z,15.59
2023-03-06T03:12:13.757Z,16.56
2023-03-06T03:13:11.079Z,16.17
2023-03-06T03:14:08.557Z,15.51
2023-03-06T03:15:06.290Z,15.93
2023-03-06T03:16:13.947Z,16.33
2023-03-06T03:17:11.336Z,16.70
2023-03-06T03:18:10.554Z,15.71
2023-03-06T03:19:07.955Z,16.50
2023-03-06T03:20:06.533Z,16.60
2023-03-06T03:21:09.789Z,17.28
2023-03-06T03:22:07.380Z,21.77
2023-03-06T03:23:04.756Z,18.68
2023-03-06T03:24:02.468Z,16.40
2023-03-06T03:24:59.790Z,17.04
2023-03-06T03:26:05.517Z,16.44
2023-03-06T03:27:03.108Z,17.17
2023-03-06T03:28:00.483Z,17.78
2023-03-06T03:28:57.860Z,17.68
2023-03-06T03:29:56.852Z,17.83
2023-03-06T03:30:54.246Z,17.74
2023-03-06T03:31:51.624Z,16.73
2023-03-06T03:32:48.963Z,17.12
2023-03-06T03:33:46.302Z,18.09
2023-03-06T03:34:43.717Z,17.01
2023-03-06T03:35:41.287Z,16.25
2023-03-06T03:36:38.869Z,17.17
2023-03-06T03:37:37.394Z,17.39
2023-03-06T03:38:35.492Z,16.91
2023-03-06T03:39:32.913Z,16.80
2023-03-06T03:40:30.292Z,17.52
2023-03-06T03:41:27.667Z,16.98
2023-03-06T03:42:25.008Z,16.82
2023-03-06T03:43:22.346Z,17.98
2023-03-06T03:44:19.720Z,17.06
2023-03-06T03:45:17.215Z,16.61
2023-03-06T03:46:14.609Z,17.37
2023-03-06T03:47:11.994Z,16.75
2023-03-06T03:48:09.860Z,17.31
2023-03-06T03:49:07.229Z,18.60
2023-03-06T03:50:04.987Z,17.77
2023-03-06T03:51:06.884Z,17.67
2023-03-06T03:52:04.402Z,17.58
2023-03-06T03:53:01.808Z,16.58
2023-03-06T03:53:59.224Z,16.79
2023-03-06T03:54:56.625Z,17.41
2023-03-06T03:55:54.253Z,17.60
2023-03-06T03:56:51.677Z,17.36
2023-03-06T03:57:49.462Z,16.83
2023-03-06T03:58:47.975Z,18.85
2023-03-06T03:59:45.311Z,17.58
2023-03-06T04:00:42.682Z,17.54
2023-03-06T04:01:40.187Z,17.32
2023-03-06T04:02:37.541Z,17.31
2023-03-06T04:03:34.915Z,17.15
2023-03-06T04:04:32.394Z,17.02
2023-03-06T04:05:29.766Z,16.46
2023-03-06T04:06:27.375Z,16.98
2023-03-06T04:07:24.794Z,17.30
2023-03-06T04:08:22.212Z,17.42
2023-03-06T04:09:19.487Z,16.70
2023-03-06T04:10:16.928Z,16.49
2023-03-06T04:11:15.121Z,17.20
2023-03-06T04:12:12.551Z,16.88
2023-03-06T04:13:10.279Z,15.12
2023-03-06T04:14:08.372Z,16.48
2023-03-06T04:15:06.306Z,16.75
2023-03-06T04:16:03.775Z,16.63
2023-03-06T04:17:01.151Z,17.73
2023-03-06T04:17:58.496Z,16.82
2023-03-06T04:18:55.856Z,17.94
2023-03-06T04:19:53.231Z,18.54
2023-03-06T04:20:51.081Z,17.53
2023-03-06T04:21:48.464Z,16.68
2023-03-06T04:22:45.812Z,16.97
2023-03-06T04:23:43.194Z,17.31
2023-03-06T04:24:40.536Z,16.96
2023-03-06T04:25:37.939Z,17.26
2023-03-06T04:26:36.179Z,17.85
2023-03-06T04:27:33.590Z,17.32
2023-03-06T04:28:31.033Z,16.33
2023-03-06T04:29:28.377Z,16.53
2023-03-06T04:30:25.845Z,16.24
2023-03-06T04:31:23.264Z,15.31
2023-03-06T04:32:21.642Z,15.32
2023-03-06T04:33:19.163Z,16.35
2023-03-06T04:34:16.548Z,15.55
2023-03-06T04:35:13.883Z,15.93
2023-03-06T04:36:21.755Z,15.68
2023-03-06T04:37:23.713Z,15.98
2023-03-06T04:38:21.161Z,15.20
2023-03-06T04:39:18.567Z,15.34
2023-03-06T04:40:21.764Z,15.79
2023-03-06T04:41:19.418Z,15.56
2023-03-06T04:42:17.364Z,16.04
2023-03-06T04:43:14.745Z,15.48
2023-03-06T04:44:12.129Z,15.87
2023-03-06T04:45:09.935Z,15.81
2023-03-06T04:46:07.444Z,15.63
2023-03-06T04:47:05.111Z,15.00
2023-03-06T04:48:02.671Z,15.16
2023-03-06T04:49:00.377Z,15.34
2023-03-06T04:49:57.675Z,15.85
2023-03-06T04:50:54.991Z,15.62
2023-03-06T04:51:52.368Z,15.31
2023-03-06T04:52:49.861Z,16.11
2023-03-06T04:53:47.210Z,15.92
2023-03-06T04:54:46.050Z,15.39
2023-03-06T04:55:43.448Z,14.88
2023-03-06T04:56:40.836Z,15.64
2023-03-06T04:57:39.229Z,15.47
2023-03-06T04:58:36.794Z,14.20
2023-03-06T04:59:34.250Z,14.72
2023-03-06T05:00:31.823Z,15.00
2023-03-06T05:01:29.240Z,15.64
2023-03-06T05:02:26.582Z,15.27
2023-03-06T05:03:23.906Z,15.34
2023-03-06T05:04:21.491Z,15.21
2023-03-06T05:05:19.185Z,15.17
2023-03-06T05:06:16.569Z,14.93
2023-03-06T05:07:13.914Z,14.14
2023-03-06T05:08:15.426Z,14.90
2023-03-06T05:09:12.815Z,14.33
2023-03-06T05:10:14.727Z,14.50
2023-03-06T05:11:12.124Z,14.61
2023-03-06T05:12:09.420Z,14.64
2023-03-06T05:13:06.873Z,14.59
2023-03-06T05:14:04.249Z,15.70
2023-03-06T05:15:01.580Z,14.64
2023-03-06T05:16:03.451Z,14.86
2023-03-06T05:17:00.950Z,16.67
2023-03-06T05:17:58.233Z,16.37
2023-03-06T05:18:55.570Z,15.19
2023-03-06T05:19:53.064Z,15.41
2023-03-06T05:20:50.334Z,15.26
2023-03-06T05:21:47.840Z,15.98
2023-03-06T05:22:45.167Z,14.35
2023-03-06T05:23:42.533Z,14.45
2023-03-06T05:24:39.907Z,15.14
2023-03-06T05:25:40.563Z,15.82
2023-03-06T05:26:37.856Z,15.22
2023-03-06T05:27:35.220Z,14.21
2023-03-06T05:28:32.696Z,14.61
2023-03-06T05:29:30.048Z,14.57
2023-03-06T05:30:27.415Z,15.31
2023-03-06T05:31:24.805Z,15.62
2023-03-06T05:32:22.884Z,14.74
2023-03-06T05:33:20.313Z,15.30
2023-03-06T05:34:17.987Z,16.85
2023-03-06T05:35:17.129Z,17.98
2023-03-06T05:36:14.497Z,16.40
2023-03-06T05:37:11.829Z,15.08
2023-03-06T05:38:09.308Z,14.84
2023-03-06T05:39:06.860Z,16.51
2023-03-06T05:40:06.135Z,16.76
2023-03-06T05:41:03.733Z,19.00
2023-03-06T05:42:01.087Z,18.11
2023-03-06T05:42:58.456Z,18.21
2023-03-06T05:43:56.985Z,14.29
2023-03-06T05:44:54.292Z,14.09
2023-03-06T05:45:53.014Z,13.76
2023-03-06T05:46:50.801Z,13.63
2023-03-06T05:47:48.169Z,13.63
2023-03-06T05:48:46.919Z,14.17
2023-03-06T05:49:44.510Z,13.64
2023-03-06T05:50:41.812Z,13.39
2023-03-06T05:51:39.133Z,13.15
2023-03-06T05:52:36.803Z,13.03
2023-03-06T05:53:34.281Z,13.37
2023-03-06T05:54:35.792Z,13.44
2023-03-06T05:55:33.090Z,13.58
2023-03-06T05:56:30.538Z,12.79
2023-03-06T05:57:28.088Z,13.23
2023-03-06T05:58:25.953Z,18.22
2023-03-06T05:59:29.181Z,13.74
2023-03-06T06:00:26.640Z,23.47
2023-03-06T06:01:25.426Z,13.06
2023-03-06T06:02:22.992Z,13.71
2023-03-06T06:03:20.941Z,12.47
2023-03-06T06:04:18.311Z,13.36
2023-03-06T06:05:15.730Z,17.40
2023-03-06T06:06:14.238Z,29.01
2023-03-06T06:07:15.490Z,29.17
2023-03-06T06:08:12.878Z,19.59
2023-03-06T06:09:11.734Z,15.73
2023-03-06T06:10:11.402Z,14.86
2023-03-06T06:11:10.060Z,15.37
2023-03-06T06:12:08.834Z,15.94
2023-03-06T06:13:06.310Z,17.68
2023-03-06T06:14:03.672Z,17.70
2023-03-06T06:15:01.127Z,13.42
2023-03-06T06:15:58.570Z,16.43
2023-03-06T06:16:56.762Z,22.42
2023-03-06T06:17:54.150Z,15.27
2023-03-06T06:18:51.453Z,17.78
2023-03-06T06:19:48.817Z,14.77
2023-03-06T06:20:46.127Z,15.32
2023-03-06T06:21:43.509Z,13.59
2023-03-06T06:22:41.175Z,14.02
2023-03-06T06:23:38.665Z,14.97
2023-03-06T06:24:36.037Z,11.71
2023-03-06T06:25:33.930Z,11.40
2023-03-06T06:26:31.757Z,14.66
2023-03-06T06:27:29.102Z,13.57
2023-03-06T06:28:27.771Z,11.04
2023-03-06T06:29:26.080Z,17.50
2023-03-06T06:30:23.583Z,11.71
2023-03-06T06:31:21.104Z,11.25
2023-03-06T06:32:18.583Z,11.52
2023-03-06T06:33:15.919Z,11.41
2023-03-06T06:34:13.351Z,11.24
2023-03-06T06:35:10.912Z,11.94
2023-03-06T06:36:18.870Z,11.28
2023-03-06T06:37:16.314Z,12.21
2023-03-06T06:38:13.702Z,12.76
2023-03-06T06:39:13.816Z,14.45
2023-03-06T06:40:11.414Z,11.68
2023-03-06T06:41:38.817Z,11.92
2023-03-06T06:42:33.218Z,12.71
2023-03-06T06:43:34.462Z,12.96
2023-03-06T06:44:31.776Z,12.12
2023-03-06T06:45:29.126Z,11.51
2023-03-06T06:47:17.820Z,12.19
2023-03-06T06:47:46.155Z,11.20
2023-03-06T06:48:43.545Z,11.74
2023-03-06T06:49:40.942Z,11.50
2023-03-06T06:50:38.270Z,12.13
2023-03-06T06:51:35.594Z,11.89
2023-03-06T06:52:32.973Z,12.31
2023-03-06T06:53:30.594Z,14.06
2023-03-06T06:54:28.019Z,12.44
2023-03-06T06:55:25.377Z,12.83
2023-03-06T06:56:22.770Z,12.60
2023-03-06T06:57:20.183Z,11.77
2023-03-06T06:58:17.726Z,12.69
2023-03-06T06:59:16.949Z,13.05
2023-03-06T07:00:15.294Z,17.88
2023-03-06T07:01:13.527Z,15.39
2023-03-06T07:02:12.406Z,15.89
2023-03-06T07:03:12.907Z,14.15
2023-03-06T07:04:12.277Z,13.30
2023-03-06T07:05:09.819Z,13.09
2023-03-06T07:06:07.822Z,13.17
2023-03-06T07:07:05.278Z,16.91
2023-03-06T07:08:02.575Z,20.43
2023-03-06T07:08:59.967Z,19.42
2023-03-06T07:09:57.361Z,14.59
2023-03-06T07:10:54.654Z,15.47
2023-03-06T07:11:52.065Z,15.07
2023-03-06T07:12:49.375Z,13.92
2023-03-06T07:13:47.473Z,14.09
2023-03-06T07:14:44.751Z,14.29
2023-03-06T07:15:42.188Z,14.11
2023-03-06T07:16:39.775Z,13.44
2023-03-06T07:17:37.159Z,13.99
2023-03-06T07:18:34.600Z,12.92
2023-03-06T07:19:32.620Z,13.12
2023-03-06T07:20:31.847Z,12.63
2023-03-06T07:21:29.163Z,12.39
2023-03-06T07:22:26.628Z,15.06
2023-03-06T07:23:24.761Z,12.62
2023-03-06T07:24:22.082Z,13.99
2023-03-06T07:25:22.460Z,13.60
2023-03-06T07:26:19.841Z,12.15
2023-03-06T07:27:17.168Z,12.50
2023-03-06T07:28:14.668Z,12.96
2023-03-06T07:29:12.000Z,12.84
2023-03-06T07:30:12.160Z,12.80
2023-03-06T07:31:11.573Z,12.64
2023-03-06T07:32:08.932Z,13.20
2023-03-06T07:33:08.663Z,14.01
2023-03-06T07:34:06.101Z,19.22
2023-03-06T07:35:19.479Z,13.09
2023-03-06T07:36:18.263Z,14.33
2023-03-06T07:37:18.322Z,13.01
2023-03-06T07:38:15.767Z,12.85
2023-03-06T07:39:13.174Z,17.68
2023-03-06T07:40:12.320Z,17.57
2023-03-06T07:41:13.510Z,14.36
2023-03-06T07:42:13.182Z,14.82
2023-03-06T07:43:19.061Z,17.79
2023-03-06T07:44:16.839Z,18.20
2023-03-06T07:45:14.263Z,17.16
2023-03-06T07:46:14.647Z,14.54
2023-03-06T07:47:12.639Z,12.66
2023-03-06T07:48:10.037Z,14.47
2023-03-06T07:49:07.403Z,14.09
2023-03-06T07:50:07.302Z,13.23
2023-03-06T07:51:06.913Z,14.01
2023-03-06T07:52:04.289Z,13.47
2023-03-06T07:53:01.673Z,13.40
2023-03-06T07:53:59.006Z,12.45
2023-03-06T07:54:56.367Z,13.17
2023-03-06T07:55:53.781Z,14.19
2023-03-06T07:56:51.466Z,15.15
2023-03-06T07:57:50.242Z,15.19
2023-03-06T07:58:47.934Z,13.00
2023-03-06T07:59:45.250Z,13.04
2023-03-06T08:00:42.631Z,13.83
2023-03-06T08:01:40.314Z,14.99
2023-03-06T08:02:37.718Z,17.99
2023-03-06T08:03:35.567Z,15.46
2023-03-06T08:04:34.117Z,14.83
2023-03-06T08:05:31.552Z,15.91
2023-03-06T08:06:29.005Z,18.69
2023-03-06T08:07:26.434Z,17.65
2023-03-06T08:08:23.720Z,14.93
2023-03-06T08:09:21.050Z,14.86
2023-03-06T08:10:18.551Z,14.45
2023-03-06T08:11:16.936Z,14.98
2023-03-06T08:12:16.348Z,14.03
2023-03-06T08:13:13.969Z,13.64
2023-03-06T08:14:11.290Z,13.19
2023-03-06T08:15:10.005Z,14.11
2023-03-06T08:16:07.706Z,13.80
2023-03-06T08:17:05.106Z,13.34
2023-03-06T08:18:02.492Z,16.08
2023-03-06T08:18:59.947Z,17.18
2023-03-06T08:19:57.526Z,14.18
2023-03-06T08:21:05.852Z,13.85
2023-03-06T08:22:04.447Z,14.96
2023-03-06T08:23:01.835Z,13.93
2023-03-06T08:23:59.308Z,14.44
2023-03-06T08:24:56.913Z,13.77
2023-03-06T08:26:01.583Z,14.01
2023-03-06T08:26:59.053Z,14.29
2023-03-06T08:27:56.844Z,15.74
2023-03-06T08:28:55.150Z,14.95
2023-03-06T08:29:52.476Z,15.77
2023-03-06T08:30:50.165Z,15.08
2023-03-06T08:31:48.574Z,15.23
2023-03-06T08:32:45.927Z,15.17
2023-03-06T08:33:43.299Z,14.91
2023-03-06T08:34:42.512Z,14.98
2023-03-06T08:35:39.905Z,15.78
2023-03-06T08:36:37.359Z,15.08
2023-03-06T08:37:34.819Z,16.69
2023-03-06T08:38:32.256Z,16.05
2023-03-06T08:39:29.644Z,15.93
2023-03-06T08:40:30.443Z,14.85
2023-03-06T08:41:28.010Z,15.41
2023-03-06T08:42:25.358Z,15.25
2023-03-06T08:43:22.803Z,14.63
2023-03-06T08:44:20.151Z,14.45
2023-03-06T08:45:17.571Z,14.50
2023-03-06T08:46:14.998Z,15.26
2023-03-06T08:47:12.433Z,14.78
2023-03-06T08:48:09.760Z,15.12
2023-03-06T08:49:07.284Z,15.93
2023-03-06T08:50:04.790Z,15.68
2023-03-06T08:51:02.553Z,14.79
2023-03-06T08:51:59.923Z,15.12
2023-03-06T08:52:57.472Z,15.61
2023-03-06T08:53:55.547Z,14.94
2023-03-06T08:54:52.941Z,15.99
2023-03-06T08:55:50.272Z,16.56
2023-03-06T08:56:47.683Z,15.60
2023-03-06T08:57:45.961Z,14.62
2023-03-06T08:58:43.300Z,13.90
2023-03-06T08:59:42.086Z,13.21
2023-03-06T09:00:39.695Z,14.27
2023-03-06T09:01:38.334Z,14.42
2023-03-06T09:02:35.766Z,14.22
2023-03-06T09:03:33.101Z,14.80
2023-03-06T09:04:31.614Z,14.15
2023-03-06T09:05:29.005Z,13.90
2023-03-06T09:06:27.155Z,13.43
2023-03-06T09:07:24.527Z,13.74
2023-03-06T09:08:21.885Z,13.61
2023-03-06T09:09:19.320Z,14.09
2023-03-06T09:10:18.170Z,14.66
2023-03-06T09:11:16.148Z,14.23
2023-03-06T09:12:13.510Z,14.33
2023-03-06T09:13:10.814Z,14.35
2023-03-06T09:14:08.213Z,14.05
2023-03-06T09:15:05.921Z,13.99
2023-03-06T09:16:03.271Z,14.59
2023-03-06T09:17:00.576Z,15.01
2023-03-06T09:18:00.236Z,14.05
2023-03-06T09:18:58.814Z,14.42
2023-03-06T09:19:56.177Z,14.66
2023-03-06T09:20:53.498Z,14.87
2023-03-06T09:21:50.842Z,14.26
2023-03-06T09:22:48.212Z,13.83
2023-03-06T09:23:45.547Z,15.47
2023-03-06T09:24:42.857Z,15.42
2023-03-06T09:25:40.269Z,15.84
2023-03-06T09:26:45.912Z,15.59
2023-03-06T09:27:44.200Z,14.01
2023-03-06T09:28:41.627Z,13.99
2023-03-06T09:29:39.004Z,13.49
2023-03-06T09:30:36.371Z,13.50
2023-03-06T09:31:33.771Z,13.64
2023-03-06T09:32:31.243Z,13.23
2023-03-06T09:33:31.322Z,13.16
2023-03-06T09:34:28.853Z,13.82
2023-03-06T09:35:26.168Z,14.60
2023-03-06T09:36:23.944Z,13.50
2023-03-06T09:37:21.242Z,12.88
2023-03-06T09:38:23.472Z,14.18
2023-03-06T09:39:20.831Z,14.08
2023-03-06T09:40:33.978Z,13.49
2023-03-06T09:41:33.579Z,13.17
2023-03-06T09:42:31.797Z,13.55
2023-03-06T09:43:32.520Z,14.06
2023-03-06T09:44:31.977Z,13.77
2023-03-06T09:45:33.072Z,13.85
2023-03-06T09:46:42.405Z,13.63
2023-03-06T09:47:56.656Z,13.49
2023-03-06T09:49:02.595Z,14.05
2023-03-06T09:50:04.975Z,14.36
2023-03-06T09:51:08.252Z,13.78
2023-03-06T09:52:18.525Z,14.74
2023-03-06T09:53:29.251Z,14.03
2023-03-06T09:54:39.045Z,13.27
2023-03-06T09:55:38.218Z,14.29
2023-03-06T09:56:36.180Z,14.67
2023-03-06T09:57:36.632Z,15.42
2023-03-06T09:58:40.820Z,15.99
2023-03-06T09:59:45.640Z,15.58
2023-03-06T10:00:45.787Z,14.68
2023-03-06T10:01:48.176Z,14.61
2023-03-06T10:02:54.773Z,13.89
2023-03-06T10:04:10.641Z,14.50
2023-03-06T10:05:15.324Z,14.42
2023-03-06T10:06:12.755Z,13.66
2023-03-06T10:07:21.999Z,14.69
2023-03-06T10:08:31.428Z,14.67
2023-03-06T10:09:39.469Z,14.68
2023-03-06T10:10:47.814Z,14.40
2023-03-06T10:11:52.994Z,13.69
2023-03-06T10:12:58.184Z,13.35
2023-03-06T10:14:07.572Z,13.02
2023-03-06T10:15:20.596Z,12.52
2023-03-06T10:16:31.860Z,12.96
2023-03-06T10:17:34.566Z,12.86
2023-03-06T10:18:31.890Z,13.15
2023-03-06T10:19:34.310Z,12.30
2023-03-06T10:20:37.327Z,13.10
2023-03-06T10:21:42.491Z,12.65
2023-03-06T10:22:55.475Z,12.26
2023-03-06T10:23:57.769Z,13.29
2023-03-06T10:24:55.150Z,13.23
2023-03-06T10:25:52.449Z,13.70
2023-03-06T10:26:59.357Z,13.25
2023-03-06T10:28:22.969Z,12.61
2023-03-06T10:29:42.196Z,13.35
2023-03-06T10:30:58.285Z,14.36
2023-03-06T10:32:03.576Z,13.95
2023-03-06T10:33:20.877Z,14.23
2023-03-06T10:34:23.990Z,14.55
2023-03-06T10:35:30.959Z,13.74
2023-03-06T10:36:29.832Z,13.69
2023-03-06T10:37:31.010Z,13.92
2023-03-06T10:38:37.731Z,13.76
2023-03-06T10:39:35.270Z,13.50
2023-03-06T10:40:42.325Z,13.93
2023-03-06T10:41:39.667Z,14.74
2023-03-06T10:42:37.032Z,14.62
2023-03-06T10:43:36.545Z,14.71
2023-03-06T10:44:34.016Z,14.44
2023-03-06T10:45:43.796Z,15.24
2023-03-06T10:46:47.896Z,14.15
2023-03-06T10:47:46.165Z,13.55
2023-03-06T10:48:57.057Z,13.87
2023-03-06T10:49:58.918Z,14.57
2023-03-06T10:51:18.446Z,15.00
2023-03-06T10:52:16.092Z,14.84
2023-03-06T10:53:21.510Z,14.23
2023-03-06T10:54:19.595Z,13.09
2023-03-06T10:55:28.464Z,13.48
2023-03-06T10:56:36.512Z,14.01
2023-03-06T10:57:33.850Z,13.63
2023-03-06T10:58:32.225Z,13.56
2023-03-06T10:59:29.664Z,13.44
2023-03-06T11:00:32.066Z,13.65
2023-03-06T11:01:30.764Z,13.86
2023-03-06T11:02:29.970Z,13.36
2023-03-06T11:03:27.546Z,13.22
2023-03-06T11:04:24.896Z,12.85
2023-03-06T11:05:22.587Z,12.73
2023-03-06T11:06:35.123Z,13.18
2023-03-06T11:07:34.711Z,13.57
2023-03-06T11:08:32.628Z,13.07
2023-03-06T11:09:29.997Z,13.23
2023-03-06T11:10:29.060Z,12.94
2023-03-06T11:11:37.091Z,13.19
2023-03-06T11:12:36.641Z,12.24
2023-03-06T11:13:37.014Z,12.93
2023-03-06T11:14:34.308Z,13.40
2023-03-06T11:15:32.156Z,12.69
2023-03-06T11:16:33.252Z,12.50
2023-03-06T11:17:32.237Z,11.69
2023-03-06T11:18:34.990Z,10.98
2023-03-06T11:19:33.280Z,11.36
2023-03-06T11:20:50.856Z,11.34
2023-03-06T11:22:01.036Z,11.78
2023-03-06T11:23:04.621Z,11.97
2023-03-06T11:24:06.205Z,11.20
2023-03-06T11:25:03.800Z,11.57
2023-03-06T11:26:01.373Z,11.35
2023-03-06T11:27:03.261Z,11.20
2023-03-06T11:28:20.814Z,11.26
2023-03-06T11:29:20.979Z,12.46
2023-03-06T11:30:28.581Z,13.08
2023-03-06T11:31:29.465Z,13.36
2023-03-06T11:32:30.067Z,13.02
2023-03-06T11:33:31.183Z,12.39
2023-03-06T11:34:40.015Z,11.85
2023-03-06T11:36:00.473Z,10.76
2023-03-06T11:37:06.590Z,11.09
2023-03-06T11:38:21.273Z,10.88
2023-03-06T11:39:42.125Z,10.94
2023-03-06T11:40:45.403Z,11.59
2023-03-06T11:41:45.276Z,10.79
2023-03-06T11:43:05.710Z,11.14
2023-03-06T11:44:25.350Z,11.10
2023-03-06T11:45:42.414Z,10.85
2023-03-06T11:46:49.647Z,11.53
2023-03-06T11:47:58.844Z,11.24
2023-03-06T11:49:15.593Z,10.94
2023-03-06T11:50:12.898Z,10.88
2023-03-06T11:51:21.463Z,11.68
2023-03-06T11:52:26.445Z,10.76
2023-03-06T11:53:32.588Z,11.06
2023-03-06T11:54:30.539Z,10.15
2023-03-06T11:55:30.638Z,9.72
2023-03-06T11:56:31.824Z,10.45
2023-03-06T11:57:43.293Z,10.43
2023-03-06T11:58:46.510Z,10.03
2023-03-06T12:00:07.969Z,9.41
2023-03-06T12:01:24.288Z,9.47
2023-03-06T12:02:30.431Z,10.02
2023-03-06T12:03:45.444Z,9.56
2023-03-06T12:04:48.601Z,9.67
2023-03-06T12:06:06.187Z,9.04
2023-03-06T12:07:21.335Z,9.40
2023-03-06T12:08:43.850Z,9.34
2023-03-06T12:09:44.311Z,9.76
2023-03-06T12:10:51.677Z,9.85
2023-03-06T12:12:08.902Z,9.13
2023-03-06T12:13:06.387Z,9.26
2023-03-06T12:14:09.472Z,9.35
2023-03-06T12:15:25.419Z,9.09
2023-03-06T12:16:46.521Z,9.86
2023-03-06T12:17:43.838Z,9.80
2023-03-06T12:18:50.936Z,9.35
2023-03-06T12:19:54.036Z,9.27
2023-03-06T12:20:57.247Z,9.16
2023-03-06T12:22:04.208Z,8.97
2023-03-06T12:23:16.776Z,9.74
2023-03-06T12:24:24.317Z,8.97
2023-03-06T12:25:37.117Z,9.49
2023-03-06T12:26:52.971Z,9.24
2023-03-06T12:28:16.393Z,8.54
2023-03-06T12:29:16.399Z,9.66
2023-03-06T12:30:13.784Z,9.76
2023-03-06T12:31:11.057Z,9.80
2023-03-06T12:32:11.385Z,9.09
2023-03-06T12:33:11.540Z,9.50
2023-03-06T12:34:18.439Z,8.70
2023-03-06T12:35:15.768Z,8.89
2023-03-06T12:36:15.822Z,9.68
2023-03-06T12:37:32.315Z,9.48
2023-03-06T12:38:47.940Z,8.78
2023-03-06T12:39:57.076Z,8.77
2023-03-06T12:40:54.543Z,8.82
2023-03-06T12:42:17.766Z,8.45
2023-03-06T12:43:25.912Z,8.24
2023-03-06T12:44:23.206Z,8.44
2023-03-06T12:45:23.448Z,8.59
2023-03-06T12:46:23.140Z,8.48
2023-03-06T12:47:22.638Z,9.83
2023-03-06T12:48:26.497Z,10.26
2023-03-06T12:49:32.372Z,10.02
2023-03-06T12:50:30.455Z,10.20
2023-03-06T12:51:27.784Z,9.87
2023-03-06T12:52:31.226Z,10.72
2023-03-06T12:53:30.633Z,10.52